Terminal Aerodrome Forecast
Issued by NWS

Home | Current Version | Previous Version | Text Only | Print | Product List | Glossary On
Versions: 1 2 3 4 5 6 7 8 9 10 11 12 13 14 15 16 17 18
000
FTUS41 KCAR 271120
TAFPQI
TAF
KPQI 271120Z 2712/2812 16014KT 2SM -SN OVC027
     FM280400 13006KT P6SM OVC025
     FM280600 13006KT 6SM BR OVC008=

USA.gov is the U.S. government's official web portal to all federal, state and local government web resources and services.